Time;durP1;ratioP1;P1;durP2;ratioP2;P2;SDS_P1;SDS_P2;PMS_P1;PMS_P2;Temp;Humidity;BMP_temperature;BMP_pressure;BME280_temperature;BME280_humidity;BME280_pressure;Samples;Min_cycle;Max_cycle;Signal;HPM_P1;HPM_P2
2023/01/06 00:01:40;;;;;;;0.10;0.10;;;7.70;99.90;12.80;163505.00;;;;5015624;28;20192;-76
2023/01/06 00:04:08;;;;;;;0.10;0.10;;;7.80;99.90;12.80;163505.00;;;;5023055;28;20211;-76
2023/01/06 00:06:36;;;;;;;0.10;0.10;;;7.80;99.90;12.80;163505.00;;;;5025829;28;20245;-76
2023/01/06 00:09:07;;;;;;;0.10;0.10;;;7.80;99.90;12.80;163505.00;;;;5026750;28;20227;-75
2023/01/06 00:11:37;;;;;;;0.10;0.10;;;7.80;99.90;12.80;163505.00;;;;5024059;28;20249;-75
2023/01/06 00:14:05;;;;;;;0.10;0.10;;;7.80;99.90;12.80;163505.00;;;;5023622;28;20679;-75
2023/01/06 00:16:33;;;;;;;0.10;0.10;;;7.80;99.90;12.80;163505.00;;;;5019661;28;20294;-76
2023/01/06 00:19:01;;;;;;;0.00;0.00;;;7.90;99.90;12.80;163505.00;;;;5025997;28;20241;-75
2023/01/06 00:21:29;;;;;;;0.10;0.10;;;7.90;99.90;12.80;163505.00;;;;5027086;28;20199;-75
2023/01/06 00:23:57;;;;;;;0.10;0.10;;;7.90;99.90;12.80;163505.00;;;;5017908;28;20187;-75
2023/01/06 00:26:27;;;;;;;0.10;0.10;;;7.90;99.90;12.80;163505.00;;;;5027569;28;20190;-75
2023/01/06 00:28:56;;;;;;;0.00;0.00;;;7.90;99.90;12.80;163505.00;;;;5036099;28;20199;-78
2023/01/06 00:31:27;;;;;;;0.10;0.10;;;7.80;99.90;12.80;163505.00;;;;5025295;28;20191;-76
2023/01/06 00:33:56;;;;;;;0.10;0.10;;;7.80;99.90;12.80;163505.00;;;;5025998;28;20198;-78
2023/01/06 00:36:25;;;;;;;0.10;0.10;;;7.80;99.90;12.80;163505.00;;;;5023390;28;20536;-78
2023/01/06 00:38:53;;;;;;;0.10;0.10;;;7.80;99.90;12.80;163505.00;;;;5023137;28;20207;-77
2023/01/06 00:44:09;;;;;;;0.10;0.10;;;7.80;99.90;12.80;163505.00;;;;5026821;28;20737;-77
2023/01/06 00:46:37;;;;;;;0.10;0.10;;;7.80;99.90;12.80;163505.00;;;;5022051;28;20215;-76
2023/01/06 00:49:06;;;;;;;0.10;0.10;;;7.80;99.90;12.80;163505.00;;;;5003155;28;20261;-76
2023/01/06 00:51:37;;;;;;;0.10;0.10;;;7.80;99.90;12.80;163505.00;;;;5002644;28;20196;-74
2023/01/06 00:54:07;;;;;;;0.10;0.10;;;7.90;99.90;12.80;163505.00;;;;5020550;28;20683;-73
2023/01/06 00:56:37;;;;;;;0.10;0.10;;;7.90;99.90;12.80;163505.00;;;;5017233;28;20678;-77
2023/01/06 00:59:06;;;;;;;0.10;0.10;;;7.90;99.90;12.80;163505.00;;;;5021875;28;20206;-77
2023/01/06 01:01:36;;;;;;;0.10;0.10;;;8.00;99.90;12.80;163505.00;;;;5023769;28;20241;-77
2023/01/06 01:04:06;;;;;;;0.10;0.10;;;8.00;99.90;12.80;163505.00;;;;5023428;28;20203;-77
2023/01/06 01:06:35;;;;;;;0.05;0.05;;;8.00;99.90;12.80;163505.00;;;;5004456;28;20203;-77
2023/01/06 01:09:05;;;;;;;0.10;0.10;;;8.00;99.90;12.80;163505.00;;;;5026278;28;20301;-78
2023/01/06 01:14:21;;;;;;;0.10;0.10;;;8.00;99.90;12.80;163505.00;;;;5019675;28;20192;-79
2023/01/06 01:16:50;;;;;;;0.10;0.10;;;8.00;99.90;12.80;163505.00;;;;5026039;28;20721;-77
2023/01/06 01:19:23;;;;;;;0.10;0.10;;;8.00;99.90;12.80;163505.00;;;;5024095;28;20506;-75
2023/01/06 01:21:51;;;;;;;0.10;0.10;;;8.00;99.90;12.80;163505.00;;;;5020416;28;20198;-76
2023/01/06 01:24:20;;;;;;;0.10;0.10;;;8.10;99.90;12.80;163505.00;;;;5012206;28;20542;-76
2023/01/06 01:26:49;;;;;;;0.10;0.10;;;8.10;99.90;12.80;163505.00;;;;5023667;28;20210;-76
2023/01/06 01:29:19;;;;;;;0.10;0.10;;;8.10;99.90;12.80;163505.00;;;;5016023;28;20195;-76
2023/01/06 01:31:51;;;;;;;0.10;0.10;;;8.10;99.90;12.80;163505.00;;;;5006663;28;20203;-75
2023/01/06 01:34:20;;;;;;;0.10;0.10;;;8.20;99.90;12.80;163505.00;;;;5019460;28;20581;-75
2023/01/06 01:36:52;;;;;;;0.10;0.10;;;8.20;99.90;12.80;163505.00;;;;5011351;28;20219;-75
2023/01/06 01:39:24;;;;;;;0.10;0.10;;;8.20;99.90;12.80;163505.00;;;;5030202;28;20195;-75
2023/01/06 01:41:54;;;;;;;0.10;0.10;;;8.30;99.90;12.80;163505.00;;;;5008344;28;20574;-75
2023/01/06 01:44:55;;;;;;;0.10;0.10;;;8.30;99.90;12.80;163505.00;;;;5011597;28;20257;-78
2023/01/06 01:47:43;;;;;;;0.10;0.10;;;8.30;99.90;12.80;163505.00;;;;5020303;28;20557;-76
2023/01/06 01:50:24;;;;;;;0.10;0.10;;;8.30;99.90;12.80;163505.00;;;;5022572;28;20219;-75
2023/01/06 01:52:57;;;;;;;0.10;0.10;;;8.30;99.90;12.80;163505.00;;;;5004556;28;20206;-75
2023/01/06 01:55:27;;;;;;;0.10;0.10;;;8.30;99.90;12.80;163505.00;;;;5032191;28;20199;-76
2023/01/06 01:58:02;;;;;;;0.10;0.10;;;8.30;99.90;12.80;163505.00;;;;5037435;28;20580;-75
2023/01/06 02:00:30;;;;;;;0.10;0.10;;;8.30;99.90;12.80;163505.00;;;;5015579;28;20199;-75
2023/01/06 02:03:00;;;;;;;0.10;0.10;;;8.30;99.90;12.80;163505.00;;;;5033048;28;20448;-75
2023/01/06 02:05:28;;;;;;;0.10;0.10;;;8.30;99.90;12.80;163505.00;;;;5017121;28;20237;-75
2023/01/06 02:08:02;;;;;;;0.10;0.10;;;8.30;99.90;12.80;163505.00;;;;5003642;28;20282;-74
2023/01/06 02:10:31;;;;;;;0.10;0.10;;;8.30;99.90;12.80;163505.00;;;;5035080;28;20215;-77
2023/01/06 02:13:01;;;;;;;0.10;0.10;;;8.30;99.90;12.80;163505.00;;;;5017027;28;20678;-76
2023/01/06 02:15:32;;;;;;;0.10;0.10;;;8.30;99.90;12.80;163505.00;;;;5031445;28;20200;-76
2023/01/06 02:18:40;;;;;;;0.10;0.10;;;8.30;99.90;12.80;163505.00;;;;5034762;28;20233;-76
2023/01/06 02:21:27;;;;;;;0.10;0.10;;;8.30;99.90;12.80;163505.00;;;;5008158;28;20253;-76
2023/01/06 02:24:53;;;;;;;0.10;0.10;;;8.40;99.90;12.80;163505.00;;;;5004238;28;20282;-76
2023/01/06 02:27:47;;;;;;;0.10;0.10;;;8.30;99.90;12.80;163505.00;;;;4936319;29;20322;-74
2023/01/06 02:31:12;;;;;;;0.10;0.10;;;8.30;99.90;12.80;163505.00;;;;5012133;28;20219;-73
2023/01/06 02:33:50;;;;;;;0.10;0.10;;;8.30;99.90;12.80;163505.00;;;;5029532;28;20206;-78
2023/01/06 02:36:34;;;;;;;0.10;0.10;;;8.40;99.90;12.80;163505.00;;;;5006508;28;20285;-75
2023/01/06 02:39:23;;;;;;;0.10;0.10;;;8.40;99.90;12.80;163505.00;;;;5006545;28;20211;-76
2023/01/06 02:42:06;;;;;;;0.10;0.10;;;8.30;99.90;12.80;163505.00;;;;5003730;28;20203;-75
2023/01/06 02:44:48;;;;;;;0.10;0.10;;;8.30;99.90;12.80;163505.00;;;;5022602;28;20201;-75
2023/01/06 02:47:25;;;;;;;0.05;0.05;;;8.30;99.90;12.80;163505.00;;;;5000377;28;20733;-76
2023/01/06 02:50:02;;;;;;;0.10;0.10;;;8.30;99.90;12.80;163505.00;;;;5011103;28;20559;-75
2023/01/06 02:52:41;;;;;;;0.10;0.10;;;8.30;99.90;12.80;163505.00;;;;5007444;28;20200;-75
2023/01/06 02:55:17;;;;;;;0.10;0.10;;;8.30;99.90;12.80;163505.00;;;;5006360;28;20262;-75
2023/01/06 02:57:56;;;;;;;0.10;0.10;;;8.40;99.90;12.80;163505.00;;;;5004319;28;20219;-75
2023/01/06 03:00:35;;;;;;;0.08;0.08;;;8.40;99.90;12.80;163505.00;;;;5013316;28;20227;-75
2023/01/06 03:03:10;;;;;;;0.10;0.10;;;8.40;99.90;12.80;163505.00;;;;5027766;28;20201;-75
2023/01/06 03:05:43;;;;;;;0.10;0.10;;;8.40;99.90;12.80;163505.00;;;;5024639;28;20203;-76
2023/01/06 03:08:17;;;;;;;0.10;0.10;;;8.40;99.90;12.80;163505.00;;;;5010190;28;20223;-76
2023/01/06 03:10:48;;;;;;;0.10;0.10;;;8.40;99.90;12.80;163505.00;;;;5028366;28;20769;-76
2023/01/06 03:13:27;;;;;;;0.10;0.10;;;8.40;99.90;12.80;163505.00;;;;5022945;28;20199;-76
2023/01/06 03:15:58;;;;;;;0.00;0.00;;;8.40;99.90;12.80;163505.00;;;;5012822;28;20211;-75
2023/01/06 03:18:27;;;;;;;0.10;0.10;;;8.40;99.90;12.80;163505.00;;;;5020664;28;20711;-75
2023/01/06 03:21:00;;;;;;;0.10;0.10;;;8.40;99.90;12.80;163505.00;;;;5015376;28;20579;-75
2023/01/06 03:23:28;;;;;;;0.10;0.10;;;8.40;99.90;12.80;163505.00;;;;5023095;28;20222;-75
2023/01/06 03:25:56;;;;;;;0.10;0.10;;;8.40;99.90;12.80;163505.00;;;;5006647;28;20253;-75
2023/01/06 03:28:26;;;;;;;0.10;0.10;;;8.50;99.90;12.80;163505.00;;;;5025347;28;20222;-76
2023/01/06 03:31:11;;;;;;;0.10;0.10;;;8.40;99.90;12.80;163505.00;;;;5007689;28;20210;-75
2023/01/06 03:33:53;;;;;;;0.10;0.10;;;8.50;99.90;12.80;163505.00;;;;5008489;28;20295;-78
2023/01/06 03:36:34;;;;;;;0.10;0.10;;;8.50;99.90;12.80;163505.00;;;;5006504;28;20684;-75
2023/01/06 03:39:14;;;;;;;0.10;0.10;;;8.50;99.90;12.80;163505.00;;;;5006562;28;20238;-76
2023/01/06 03:44:48;;;;;;;0.10;0.10;;;8.50;99.90;12.80;163505.00;;;;5023777;28;20600;-78
2023/01/06 03:47:26;;;;;;;0.10;0.10;;;8.50;99.90;12.80;163505.00;;;;5002082;28;20233;-78
2023/01/06 03:50:07;;;;;;;0.10;0.10;;;8.50;99.90;12.80;163505.00;;;;5023509;28;20206;-77
2023/01/06 03:52:45;;;;;;;0.10;0.10;;;8.50;99.90;12.80;163505.00;;;;5008882;28;20683;-76
2023/01/06 03:55:18;;;;;;;0.10;0.10;;;8.50;99.90;12.80;163505.00;;;;5011437;28;20226;-75
2023/01/06 03:57:52;;;;;;;0.10;0.10;;;8.50;99.90;12.80;163505.00;;;;5011257;28;20607;-76
2023/01/06 04:00:25;;;;;;;0.10;0.10;;;8.50;99.90;12.80;163505.00;;;;5024698;28;20722;-76
2023/01/06 04:03:00;;;;;;;0.10;0.10;;;8.50;99.90;12.80;163505.00;;;;5006511;28;20214;-76
2023/01/06 04:05:30;;;;;;;0.10;0.10;;;8.60;99.90;12.80;163505.00;;;;4999994;28;20199;-76
2023/01/06 04:08:01;;;;;;;0.10;0.10;;;8.60;99.90;12.80;163505.00;;;;5004945;28;20314;-76
2023/01/06 04:10:29;;;;;;;0.10;0.10;;;8.50;99.90;12.80;163505.00;;;;5008592;28;20199;-75
2023/01/06 04:12:57;;;;;;;0.10;0.10;;;8.60;99.90;12.80;163505.00;;;;5019477;28;20225;-75
2023/01/06 04:15:29;;;;;;;0.10;0.10;;;8.60;99.90;12.80;163505.00;;;;5008644;28;20241;-75
2023/01/06 04:17:59;;;;;;;0.10;0.10;;;8.60;99.90;12.80;163505.00;;;;5004506;28;20310;-76
2023/01/06 04:20:32;;;;;;;0.10;0.10;;;8.60;99.90;12.80;163505.00;;;;5005668;28;20207;-76
2023/01/06 04:23:16;;;;;;;0.10;0.10;;;8.50;99.90;12.80;163505.00;;;;5008125;28;20744;-76
2023/01/06 04:25:45;;;;;;;0.10;0.10;;;8.50;99.90;12.80;163505.00;;;;5010909;28;20310;-76
2023/01/06 04:28:27;;;;;;;0.10;0.10;;;8.50;99.90;12.80;163505.00;;;;5006113;28;20214;-76
2023/01/06 04:30:58;;;;;;;0.10;0.10;;;8.50;99.90;12.80;163505.00;;;;5009649;28;20199;-76
2023/01/06 04:33:29;;;;;;;0.10;0.10;;;8.50;99.90;12.80;163505.00;;;;5002841;28;20618;-77
2023/01/06 04:36:02;;;;;;;0.10;0.10;;;8.50;99.90;12.80;163505.00;;;;5007782;28;20216;-76
2023/01/06 04:38:30;;;;;;;0.10;0.10;;;8.50;99.90;12.80;163505.00;;;;5004471;28;20712;-77
2023/01/06 04:40:58;;;;;;;0.10;0.10;;;8.50;99.90;12.80;163505.00;;;;5017616;28;20214;-75
2023/01/06 04:43:26;;;;;;;0.10;0.10;;;8.50;99.90;12.80;163505.00;;;;5024290;28;20192;-75
2023/01/06 04:45:54;;;;;;;0.10;0.10;;;8.50;99.90;12.80;163505.00;;;;5020721;28;20191;-76
2023/01/06 04:48:22;;;;;;;0.10;0.10;;;8.50;99.90;12.80;163505.00;;;;5022848;28;20235;-76
2023/01/06 04:50:50;;;;;;;0.10;0.10;;;8.50;99.90;12.80;163505.00;;;;5016233;28;20238;-76
2023/01/06 04:53:19;;;;;;;0.00;0.00;;;8.50;99.90;12.80;163505.00;;;;5017656;28;20219;-76
2023/01/06 04:55:47;;;;;;;0.10;0.10;;;8.50;99.90;12.80;163505.00;;;;5020106;28;20733;-76
2023/01/06 04:58:15;;;;;;;0.10;0.10;;;8.50;99.90;12.80;163505.00;;;;5026148;28;20227;-76
2023/01/06 05:00:43;;;;;;;0.08;0.08;;;8.60;99.90;12.80;163505.00;;;;5024354;28;20241;-76
2023/01/06 05:03:11;;;;;;;0.10;0.10;;;8.50;99.90;12.80;163505.00;;;;5030505;28;20217;-76
2023/01/06 05:05:39;;;;;;;0.10;0.10;;;8.60;99.90;12.80;163505.00;;;;5018437;28;20664;-75
2023/01/06 05:08:07;;;;;;;0.10;0.10;;;8.60;99.90;12.80;163505.00;;;;5021664;28;20481;-75
2023/01/06 05:10:36;;;;;;;0.10;0.10;;;8.60;99.90;12.80;163505.00;;;;5017664;28;20195;-75
2023/01/06 05:13:04;;;;;;;0.10;0.10;;;8.60;99.90;12.80;163505.00;;;;5023968;28;20284;-75
2023/01/06 05:15:32;;;;;;;0.10;0.10;;;8.60;99.90;12.80;163505.00;;;;5022608;28;20195;-74
2023/01/06 05:17:59;;;;;;;0.10;0.10;;;8.70;99.90;12.80;163505.00;;;;5030084;28;20221;-75
2023/01/06 05:20:27;;;;;;;0.10;0.10;;;8.70;99.90;12.80;163505.00;;;;5025443;28;20199;-75
2023/01/06 05:22:55;;;;;;;0.10;0.10;;;8.70;99.90;12.80;163505.00;;;;5023739;28;20664;-75
2023/01/06 05:25:23;;;;;;;0.10;0.10;;;8.70;99.90;12.80;163505.00;;;;5022871;28;20730;-75
2023/01/06 05:27:52;;;;;;;0.10;0.10;;;8.70;99.90;12.80;163505.00;;;;5026366;28;20218;-74
2023/01/06 05:30:20;;;;;;;0.00;0.00;;;8.70;99.90;12.80;163505.00;;;;5031680;28;20195;-75
2023/01/06 05:32:48;;;;;;;0.10;0.10;;;8.70;99.90;12.80;163505.00;;;;5023745;28;20223;-77
2023/01/06 05:35:16;;;;;;;0.10;0.10;;;8.70;99.90;12.80;163505.00;;;;5023503;28;20195;-74
2023/01/06 05:37:44;;;;;;;0.10;0.10;;;8.80;99.90;12.80;163505.00;;;;5026074;28;20273;-75
2023/01/06 05:40:12;;;;;;;0.10;0.10;;;8.80;99.90;12.80;163505.00;;;;5025699;28;20245;-75
2023/01/06 05:42:40;;;;;;;0.10;0.10;;;8.80;99.90;12.80;163505.00;;;;5020453;28;20204;-75
2023/01/06 05:45:12;;;;;;;0.10;0.10;;;8.80;99.90;12.80;163505.00;;;;5028775;28;20204;-75
2023/01/06 05:47:40;;;;;;;0.10;0.10;;;8.90;99.90;12.80;163505.00;;;;5019297;28;20228;-73
2023/01/06 05:50:08;;;;;;;0.10;0.10;;;8.90;99.90;12.80;163505.00;;;;5024977;28;20289;-74
2023/01/06 05:52:36;;;;;;;0.10;0.10;;;8.90;99.90;12.80;163505.00;;;;5023874;28;20278;-74
2023/01/06 05:55:06;;;;;;;0.10;0.10;;;8.90;99.90;12.80;163505.00;;;;5020422;28;20563;-76
2023/01/06 05:57:35;;;;;;;0.10;0.10;;;8.90;99.90;12.80;163505.00;;;;5018948;28;20763;-76
2023/01/06 06:00:04;;;;;;;0.10;0.10;;;8.90;99.90;12.80;163505.00;;;;5024143;28;20199;-74
2023/01/06 06:02:40;;;;;;;0.10;0.10;;;8.90;99.90;12.80;163505.00;;;;5024135;28;20668;-74
2023/01/06 06:05:08;;;;;;;0.00;0.00;;;9.00;99.90;12.80;163505.00;;;;5022564;28;20192;-74
2023/01/06 06:07:36;;;;;;;0.10;0.10;;;9.00;99.90;12.80;163505.00;;;;5020899;28;20265;-75
2023/01/06 06:10:06;;;;;;;0.10;0.10;;;9.00;99.90;12.80;163505.00;;;;5027359;28;20207;-75
2023/01/06 06:12:34;;;;;;;0.10;0.10;;;9.00;99.90;12.80;163505.00;;;;5025415;28;20227;-75
2023/01/06 06:15:03;;;;;;;0.10;0.10;;;9.10;99.90;12.80;163505.00;;;;5026460;28;20664;-74
2023/01/06 06:17:31;;;;;;;0.10;0.10;;;9.10;99.90;12.80;163505.00;;;;5032304;28;20285;-75
2023/01/06 06:20:00;;;;;;;0.10;0.10;;;9.10;99.90;12.80;163505.00;;;;5026855;28;20192;-75
2023/01/06 06:22:28;;;;;;;0.10;0.10;;;9.10;99.90;12.80;163505.00;;;;5031324;28;20204;-75
2023/01/06 06:24:56;;;;;;;0.10;0.10;;;9.10;99.90;12.80;163505.00;;;;5035993;28;20191;-75
2023/01/06 06:27:24;;;;;;;0.10;0.10;;;9.10;99.90;12.80;163505.00;;;;5032242;28;20230;-75
2023/01/06 06:29:52;;;;;;;0.10;0.10;;;9.20;99.90;12.80;163505.00;;;;5025868;28;20435;-77
2023/01/06 06:32:20;;;;;;;0.08;0.08;;;9.20;99.90;12.80;163505.00;;;;5032208;28;20222;-78
2023/01/06 06:34:51;;;;;;;0.10;0.10;;;9.20;99.90;12.80;163505.00;;;;5033883;28;20199;-78
2023/01/06 06:37:20;;;;;;;0.10;0.10;;;9.20;99.90;12.80;163505.00;;;;5034754;28;20211;-79
2023/01/06 06:39:48;;;;;;;0.10;0.10;;;9.20;99.90;12.80;163505.00;;;;5043462;28;20222;-78
2023/01/06 06:42:16;;;;;;;0.10;0.10;;;9.30;99.90;12.80;163505.00;;;;5053182;28;20187;-77
2023/01/06 06:44:44;;;;;;;0.10;0.10;;;9.30;99.90;12.80;163505.00;;;;5050549;28;20209;-78
2023/01/06 06:47:13;;;;;;;0.10;0.10;;;9.30;99.90;12.80;163505.00;;;;5050627;28;20235;-78
2023/01/06 06:49:41;;;;;;;0.10;0.10;;;9.30;99.90;12.80;163505.00;;;;5053816;28;20234;-77
2023/01/06 06:52:09;;;;;;;0.10;0.10;;;9.30;99.90;12.80;163505.00;;;;5050294;28;20194;-77
2023/01/06 06:54:38;;;;;;;0.10;0.10;;;9.30;99.90;12.80;163505.00;;;;5050621;28;21400;-77
2023/01/06 06:57:06;;;;;;;0.10;0.10;;;9.30;99.90;12.80;163505.00;;;;5048275;28;20228;-77
2023/01/06 06:59:34;;;;;;;0.10;0.10;;;9.30;99.90;12.80;163505.00;;;;5047819;28;20192;-78
2023/01/06 07:02:01;;;;;;;0.10;0.10;;;9.30;99.90;12.80;163505.00;;;;5039884;28;20614;-78
2023/01/06 07:04:30;;;;;;;0.10;0.10;;;9.40;99.90;12.80;163505.00;;;;5035576;28;20252;-79
2023/01/06 07:06:58;;;;;;;0.10;0.10;;;9.40;99.90;12.80;163505.00;;;;5026312;28;20270;-79
2023/01/06 07:09:26;;;;;;;0.10;0.10;;;9.40;99.90;12.80;163505.00;;;;5026320;28;20200;-79
2023/01/06 07:11:55;;;;;;;0.10;0.10;;;9.40;99.90;12.80;163505.00;;;;5032321;28;20656;-78
2023/01/06 07:14:23;;;;;;;0.10;0.10;;;9.40;99.90;12.80;163505.00;;;;5027344;28;20281;-78
2023/01/06 07:16:51;;;;;;;0.10;0.10;;;9.40;99.90;12.80;163505.00;;;;5033622;28;20265;-78
2023/01/06 07:19:19;;;;;;;0.10;0.10;;;9.40;99.90;12.80;163505.00;;;;5025195;28;20195;-78
2023/01/06 07:21:47;;;;;;;0.10;0.10;;;9.40;99.90;12.80;163505.00;;;;5030692;28;20612;-79
2023/01/06 07:24:15;;;;;;;0.10;0.10;;;9.50;99.90;12.80;163505.00;;;;5027399;28;20222;-79
2023/01/06 07:26:42;;;;;;;0.10;0.10;;;9.50;99.90;12.80;163505.00;;;;5027548;28;20226;-79
2023/01/06 07:29:12;;;;;;;0.10;0.10;;;9.50;99.90;12.80;163505.00;;;;5025596;28;20204;-79
2023/01/06 07:31:40;;;;;;;0.10;0.10;;;9.50;99.90;12.80;163505.00;;;;5036385;28;20551;-78
2023/01/06 07:34:08;;;;;;;0.10;0.10;;;9.50;99.90;12.80;163505.00;;;;5036349;28;20286;-76
2023/01/06 07:36:36;;;;;;;0.10;0.10;;;9.50;99.90;12.80;163505.00;;;;5027731;28;20206;-77
2023/01/06 07:39:04;;;;;;;0.10;0.10;;;9.60;99.90;12.80;163505.00;;;;5017821;28;20598;-76
2023/01/06 07:41:32;;;;;;;0.10;0.10;;;9.60;99.90;12.80;163505.00;;;;5023528;28;20195;-77
2023/01/06 07:44:00;;;;;;;0.10;0.10;;;9.60;99.90;12.80;163505.00;;;;5029401;28;20574;-77
2023/01/06 07:46:30;;;;;;;0.10;0.10;;;9.60;99.90;12.80;163505.00;;;;5030558;28;20206;-76
2023/01/06 07:48:58;;;;;;;0.03;0.03;;;9.60;99.90;12.80;163505.00;;;;5029851;28;20284;-76
2023/01/06 07:51:26;;;;;;;0.10;0.10;;;9.70;99.90;12.80;163505.00;;;;5023182;28;20202;-77
2023/01/06 07:53:54;;;;;;;0.10;0.10;;;9.70;99.90;12.80;163505.00;;;;5005752;28;20715;-76
2023/01/06 07:56:22;;;;;;;0.10;0.10;;;9.70;99.90;12.80;163505.00;;;;5031864;28;20202;-77
2023/01/06 07:58:50;;;;;;;0.10;0.10;;;9.60;99.90;12.80;163505.00;;;;5023254;28;20210;-76
2023/01/06 08:01:18;;;;;;;0.10;0.10;;;9.70;99.90;12.80;163505.00;;;;5020554;28;20203;-77
2023/01/06 08:03:47;;;;;;;0.10;0.10;;;9.70;99.90;12.80;163505.00;;;;5025073;28;20261;-77
2023/01/06 08:06:15;;;;;;;0.10;0.10;;;9.70;99.90;12.80;163505.00;;;;5007438;28;20204;-77
2023/01/06 08:08:43;;;;;;;0.10;0.10;;;9.70;99.90;12.80;163505.00;;;;5025445;28;20223;-78
2023/01/06 08:11:13;;;;;;;0.10;0.10;;;9.60;99.90;12.80;163505.00;;;;5012571;28;20204;-78
2023/01/06 08:13:41;;;;;;;0.00;0.00;;;9.70;99.90;12.80;163505.00;;;;5019223;28;20291;-77
2023/01/06 08:16:11;;;;;;;0.10;0.10;;;9.60;99.90;12.80;163505.00;;;;5022002;28;20199;-77
2023/01/06 08:18:39;;;;;;;0.10;0.10;;;9.60;99.90;12.80;163505.00;;;;5028507;28;20241;-77
2023/01/06 08:21:11;;;;;;;0.10;0.10;;;9.60;99.90;12.80;163505.00;;;;5025243;28;20203;-78
2023/01/06 08:23:39;;;;;;;0.10;0.10;;;9.60;99.90;12.80;163505.00;;;;5031655;28;20895;-77
2023/01/06 08:26:10;;;;;;;0.10;0.10;;;9.60;99.90;12.80;163505.00;;;;5019926;28;20706;-77
2023/01/06 08:28:38;;;;;;;0.10;0.10;;;9.70;99.90;12.80;163505.00;;;;5013740;28;20248;-77
2023/01/06 08:31:10;;;;;;;0.10;0.10;;;9.70;99.90;12.80;163505.00;;;;5026525;28;20208;-77
2023/01/06 08:33:41;;;;;;;0.10;0.10;;;9.70;99.90;12.80;163505.00;;;;5026249;28;20306;-78
2023/01/06 08:36:14;;;;;;;0.10;0.10;;;9.80;99.90;12.80;163505.00;;;;5032801;28;20211;-78
2023/01/06 08:38:43;;;;;;;0.10;0.10;;;9.90;99.90;12.80;163505.00;;;;5037670;28;20219;-78
2023/01/06 08:41:12;;;;;;;0.10;0.10;;;9.90;99.90;12.80;163505.00;;;;5037276;28;20207;-77
2023/01/06 08:43:43;;;;;;;0.10;0.10;;;10.00;99.90;12.80;163505.00;;;;5045508;28;20243;-76
2023/01/06 08:46:17;;;;;;;0.10;0.10;;;10.10;99.90;12.80;163505.00;;;;5010761;28;20230;-77
2023/01/06 08:48:45;;;;;;;0.10;0.10;;;10.10;99.90;12.80;163505.00;;;;5030357;28;20281;-77
2023/01/06 08:51:17;;;;;;;0.10;0.10;;;10.30;99.90;12.80;163505.00;;;;5030251;28;20218;-74
2023/01/06 08:53:46;;;;;;;0.10;0.10;;;10.40;99.90;12.80;163505.00;;;;5032522;28;20265;-76
2023/01/06 08:56:16;;;;;;;0.10;0.10;;;10.50;99.90;12.80;163505.00;;;;5024841;28;20271;-76
2023/01/06 08:58:44;;;;;;;0.10;0.10;;;10.50;99.90;12.80;163505.00;;;;5032064;28;20222;-77
2023/01/06 09:01:17;;;;;;;0.00;0.00;;;10.60;99.90;12.80;163505.00;;;;5022729;28;20256;-77
2023/01/06 09:03:45;;;;;;;0.00;0.00;;;10.70;99.90;12.80;163505.00;;;;5017754;28;20259;-77
2023/01/06 09:06:16;;;;;;;0.10;0.10;;;10.70;99.90;12.80;163505.00;;;;5000108;28;20204;-77
2023/01/06 09:08:44;;;;;;;0.10;0.10;;;10.70;99.90;12.80;163505.00;;;;5022608;28;20555;-76
2023/01/06 09:11:12;;;;;;;0.10;0.10;;;10.70;99.90;12.80;163505.00;;;;5022197;28;20338;-76
2023/01/06 09:13:41;;;;;;;0.10;0.10;;;10.70;99.90;12.80;163505.00;;;;5026248;28;20284;-77
2023/01/06 09:16:11;;;;;;;0.00;0.00;;;10.80;99.90;12.80;163505.00;;;;5024921;28;20204;-76
2023/01/06 09:18:43;;;;;;;0.10;0.10;;;10.80;99.90;12.80;163505.00;;;;5030975;28;20238;-77
2023/01/06 09:21:11;;;;;;;0.10;0.10;;;10.80;99.90;12.80;163505.00;;;;5022631;28;20203;-77
2023/01/06 09:23:40;;;;;;;0.10;0.10;;;10.80;99.90;12.80;163505.00;;;;5032300;28;20202;-78
2023/01/06 09:26:09;;;;;;;0.10;0.10;;;10.80;99.90;12.80;163505.00;;;;5022569;28;20210;-77
2023/01/06 09:28:36;;;;;;;0.10;0.10;;;10.90;99.90;12.80;163505.00;;;;5017956;28;20273;-78
2023/01/06 09:31:05;;;;;;;0.10;0.10;;;10.90;99.90;12.80;163505.00;;;;5015748;28;20203;-77
2023/01/06 09:33:33;;;;;;;0.10;0.10;;;10.90;99.90;12.80;163505.00;;;;5017292;28;20237;-77
2023/01/06 09:36:01;;;;;;;0.10;0.10;;;10.90;99.90;12.80;163505.00;;;;5016702;28;20211;-75
2023/01/06 09:38:29;;;;;;;0.10;0.10;;;11.00;99.90;12.80;163505.00;;;;5015707;28;20719;-77
2023/01/06 09:41:19;;;;;;;0.00;0.00;;;11.00;99.90;12.80;163505.00;;;;5024621;28;20194;-78
2023/01/06 09:43:54;;;;;;;0.10;0.10;;;11.00;99.90;12.80;163505.00;;;;5016213;28;20208;-78
2023/01/06 09:46:27;;;;;;;0.10;0.10;;;11.00;99.90;12.80;163505.00;;;;5019343;28;20190;-77
2023/01/06 09:49:07;;;;;;;0.10;0.10;;;11.00;99.90;12.80;163505.00;;;;5019741;28;20199;-77
2023/01/06 09:51:38;;;;;;;0.10;0.10;;;11.00;99.90;12.80;163505.00;;;;5006895;28;20306;-77
2023/01/06 09:54:15;;;;;;;0.00;0.00;;;11.00;99.90;12.80;163505.00;;;;5002288;28;20269;-77
2023/01/06 09:56:51;;;;;;;0.10;0.10;;;11.00;99.90;12.80;163505.00;;;;5032810;28;20202;-78
2023/01/06 09:59:27;;;;;;;0.10;0.10;;;11.00;99.90;12.80;163505.00;;;;5030217;28;20195;-77
2023/01/06 10:01:58;;;;;;;0.00;0.00;;;11.00;99.90;12.80;163505.00;;;;5034264;28;20233;-78
2023/01/06 10:04:30;;;;;;;0.10;0.10;;;11.10;99.90;12.80;163505.00;;;;5023041;28;20206;-77
2023/01/06 10:07:18;;;;;;;0.10;0.10;;;11.10;99.90;12.80;163505.00;;;;5025574;28;20219;-76
2023/01/06 10:10:01;;;;;;;0.10;0.10;;;11.10;99.90;12.80;163505.00;;;;5027540;28;20885;-78
2023/01/06 10:12:52;;;;;;;0.00;0.00;;;11.10;99.90;12.80;163505.00;;;;5017288;28;20192;-78
2023/01/06 10:15:32;;;;;;;0.10;0.10;;;11.10;99.90;12.80;163505.00;;;;5027660;28;20584;-77
2023/01/06 10:18:23;;;;;;;0.10;0.10;;;11.10;99.90;12.80;163505.00;;;;5029479;28;20258;-78
2023/01/06 10:21:06;;;;;;;0.10;0.10;;;11.10;99.90;12.80;163505.00;;;;5013770;28;20199;-79
2023/01/06 10:24:06;;;;;;;0.10;0.10;;;11.10;99.90;12.80;163505.00;;;;5049778;28;20438;-76
2023/01/06 10:26:43;;;;;;;0.10;0.10;;;11.10;99.90;12.80;163505.00;;;;5051706;28;20226;-77
2023/01/06 10:29:17;;;;;;;0.10;0.10;;;11.20;99.90;12.80;163505.00;;;;5027536;28;20215;-78
2023/01/06 10:31:48;;;;;;;0.10;0.10;;;11.10;99.90;12.80;163505.00;;;;5030991;28;20203;-76
2023/01/06 10:34:22;;;;;;;0.10;0.10;;;11.10;99.90;12.80;163505.00;;;;5036030;28;20198;-78
2023/01/06 10:37:01;;;;;;;0.10;0.10;;;11.10;99.90;12.80;163505.00;;;;5029412;28;20603;-77
2023/01/06 10:39:31;;;;;;;0.03;0.03;;;11.10;99.90;12.80;163505.00;;;;5022349;28;20564;-78
2023/01/06 10:45:10;;;;;;;0.10;0.10;;;11.10;99.90;12.80;163505.00;;;;5028888;28;20217;-77
2023/01/06 10:47:42;;;;;;;0.10;0.10;;;11.00;99.90;12.80;163505.00;;;;5040322;28;20238;-75
2023/01/06 10:50:14;;;;;;;0.10;0.10;;;10.90;99.90;12.80;163505.00;;;;5032691;28;20571;-75
2023/01/06 10:52:43;;;;;;;0.10;0.10;;;10.80;99.90;12.80;163505.00;;;;5025735;28;20573;-75
2023/01/06 10:55:33;;;;;;;0.00;0.00;;;10.70;99.90;12.80;163505.00;;;;5025434;28;20253;-74
2023/01/06 10:58:14;;;;;;;0.10;0.10;;;10.70;99.90;12.80;163505.00;;;;5022827;28;20223;-75
2023/01/06 11:00:58;;;;;;;0.10;0.10;;;10.60;99.90;12.80;163505.00;;;;5027249;28;20260;-74
2023/01/06 11:03:28;;;;;;;0.10;0.10;;;10.60;99.90;12.80;163505.00;;;;5024161;28;20195;-74
2023/01/06 11:06:15;;;;;;;0.10;0.10;;;10.60;99.90;12.80;163505.00;;;;5029376;28;20237;-75
2023/01/06 11:08:43;;;;;;;0.00;0.00;;;10.70;99.90;12.80;163505.00;;;;5029706;28;20218;-75
2023/01/06 11:11:18;;;;;;;0.10;0.10;;;10.70;99.90;12.80;163505.00;;;;5032692;28;20203;-75
2023/01/06 11:14:04;;;;;;;0.10;0.10;;;10.70;99.90;12.80;163505.00;;;;5027497;28;20217;-75
2023/01/06 11:16:36;;;;;;;0.10;0.10;;;10.80;99.90;12.80;163505.00;;;;5025894;28;20264;-75
2023/01/06 11:19:08;;;;;;;0.00;0.00;;;10.80;99.90;12.80;163505.00;;;;5030958;28;20231;-75
2023/01/06 11:21:42;;;;;;;0.10;0.10;;;10.90;99.90;12.80;163505.00;;;;5024586;28;20213;-75
2023/01/06 11:24:19;;;;;;;0.10;0.10;;;10.90;99.90;12.80;163505.00;;;;5028936;28;20321;-75
2023/01/06 11:26:53;;;;;;;0.10;0.10;;;10.80;99.90;12.80;163505.00;;;;5013800;28;20276;-76